EGGW - Luton Airport
Distance from station: E 5mi, 14km
Updated: 10/19/2017 11:50pm
Overcast
Overcast
 Wind from W
Wind: W 21 mph , 33 km/h
Temperature: 54°F , 12°C
Dew Point: 52°F , 11°C
Humidity: 94%
Barometer: 29.5 inHg , 999 hPa
Clouds: Overcast
Visibility: 6 miles , 10 km
Cloud details: Overcast 1000 ft
2017/10/20 06:50 EGGW 200650Z AUTO 26018KT 9999 OVC010 12/11 Q0999